createdAt,value
2023-03-27T09:32:33.611Z,922.00
2023-03-27T11:08:30.736Z,880.00
2023-03-27T11:16:30.386Z,833.00
2023-03-27T11:24:30.264Z,772.00
2023-03-27T11:32:30.241Z,629.00
2023-03-27T11:40:30.239Z,637.00
2023-03-27T11:48:30.722Z,615.00
2023-03-27T11:56:30.757Z,826.00
2023-03-27T12:04:31.242Z,836.00
2023-03-27T12:12:30.778Z,823.00
2023-03-27T12:20:31.239Z,905.00
2023-03-27T12:28:30.782Z,938.00
2023-03-27T12:36:30.747Z,954.00
2023-03-27T12:44:30.772Z,942.00
2023-03-27T12:52:30.189Z,906.00
2023-03-27T12:56:31.242Z,913.00
2023-03-27T13:00:31.268Z,882.00
2023-03-27T13:04:31.251Z,877.00
2023-03-27T13:08:30.861Z,891.00
2023-03-27T13:12:31.253Z,885.00
2023-03-27T13:20:29.764Z,885.00
2023-03-27T13:28:29.900Z,854.00
2023-03-27T13:44:29.804Z,855.00
2023-03-27T13:52:29.244Z,854.00
2023-03-27T14:00:29.269Z,851.00
2023-03-27T14:08:29.271Z,860.00
2023-03-27T14:12:30.273Z,858.00
2023-03-27T14:16:29.852Z,876.00
2023-03-27T14:20:30.310Z,855.00
2023-03-27T14:24:30.288Z,846.00
2023-03-27T14:28:29.818Z,832.00
2023-03-27T14:32:29.881Z,832.00
2023-03-27T14:36:29.809Z,844.00
2023-03-27T14:40:29.796Z,688.00
2023-03-27T14:44:29.615Z,673.00
2023-03-27T14:48:29.793Z,623.00
2023-03-27T14:52:29.524Z,606.00
2023-03-27T14:56:29.453Z,587.00
2023-03-27T15:00:29.389Z,568.00
2023-03-27T15:04:29.794Z,549.00
2023-03-27T15:08:29.323Z,538.00
2023-03-27T15:12:29.321Z,532.00
2023-03-27T15:16:29.336Z,539.00
2023-03-27T15:20:29.299Z,538.00
2023-03-27T15:24:29.384Z,539.00
2023-03-27T15:28:29.256Z,538.00
2023-03-27T15:32:29.364Z,544.00
2023-03-27T15:36:29.469Z,542.00
2023-03-27T15:40:29.629Z,539.00
2023-03-27T15:48:28.915Z,541.00
2023-03-27T15:52:30.067Z,540.00
2023-03-27T15:56:30.247Z,538.00
2023-03-27T16:00:30.805Z,536.00
2023-03-27T16:04:30.543Z,534.00
2023-03-27T16:08:30.714Z,535.00
2023-03-27T16:12:30.955Z,538.00
2023-03-27T16:16:31.144Z,541.00
2023-03-27T16:20:31.254Z,541.00
2023-03-27T16:28:30.664Z,536.00
2023-03-27T16:36:31.024Z,535.00
2023-03-27T16:44:31.374Z,532.00
2023-03-27T16:48:32.119Z,530.00
2023-03-27T16:52:32.079Z,530.00
2023-03-27T16:56:32.036Z,531.00
2023-03-27T17:00:32.040Z,530.00
2023-03-27T17:04:32.384Z,527.00
2023-03-27T17:08:31.911Z,524.00
2023-03-27T17:12:31.826Z,527.00
2023-03-27T17:16:31.871Z,523.00
2023-03-27T17:20:31.912Z,527.00
2023-03-27T17:24:33.359Z,526.00
2023-03-27T17:28:32.043Z,525.00
2023-03-27T17:32:32.042Z,527.00
2023-03-27T17:36:41.550Z,530.00
2023-03-27T17:40:32.867Z,528.00
2023-03-27T17:44:31.897Z,519.00
2023-03-27T17:48:31.878Z,524.00
2023-03-27T17:52:32.038Z,527.00
2023-03-27T17:56:32.263Z,528.00
2023-03-27T18:00:32.224Z,521.00
2023-03-27T18:04:32.211Z,514.00
2023-03-27T18:08:32.142Z,522.00
2023-03-27T18:12:32.077Z,521.00
2023-03-27T18:16:32.099Z,523.00
2023-03-27T18:20:32.249Z,525.00
2023-03-27T18:24:31.954Z,519.00
2023-03-27T18:28:31.879Z,524.00
2023-03-27T18:32:31.883Z,525.00
2023-03-27T18:36:31.787Z,524.00
2023-03-27T18:40:31.704Z,523.00
2023-03-27T18:44:31.656Z,517.00
2023-03-27T18:48:31.641Z,514.00
2023-03-27T18:52:31.821Z,518.00
2023-03-27T18:56:32.006Z,516.00
2023-03-27T19:00:32.273Z,513.00
2023-03-27T19:08:31.652Z,512.00
2023-03-27T19:16:32.154Z,506.00
